Ninilchik, Alaska
Current Conditions -  °F | °C
As of 11:53 PM on Tuesday 25 Nov 2014 (Local Time) from PAHO Reporting Station
Light Rain Light Rain  
Wind Chill: 32°   Ceiling: 1900
Heat Index: 37°   Visibility: 8mi
Dew Point: 33°   Wind: 6mph
Humidity: 86%   Direction: 80°E
Pressure: 30.31"   Gusts: NA
Location:  60.05°N, 151.65°W
Report Text: PAHO 260853Z AUTO 08005KT 8SM -RA BKN019 OVC030 03/01 A3031 RMK AO2 UPB36E46RAB46 SLP265 P0000 60000 T00280006 400501011 51007 TSNO
Loading
Personal Weather Stations






























Interactive Weather Map New forecast layout! Learn more

10-Day Weather Forecast

Advertisements
Track Severe Weather on mobile